sensor_id;sensor_type;location;lat;lon;timestamp;P1;durP1;ratioP1;P2;durP2;ratioP2
359;SDS011;168;48.872;9.226;2023-02-01T00:02:15;4.80;;;4.30;;
359;SDS011;168;48.872;9.226;2023-02-01T00:04:44;4.53;;;4.13;;
359;SDS011;168;48.872;9.226;2023-02-01T00:07:11;3.80;;;3.43;;
359;SDS011;168;48.872;9.226;2023-02-01T00:09:38;3.77;;;3.47;;
359;SDS011;168;48.872;9.226;2023-02-01T00:12:06;4.53;;;3.20;;
359;SDS011;168;48.872;9.226;2023-02-01T00:14:33;3.73;;;3.40;;
359;SDS011;168;48.872;9.226;2023-02-01T00:17:04;4.20;;;3.27;;
359;SDS011;168;48.872;9.226;2023-02-01T00:19:32;4.00;;;3.53;;
359;SDS011;168;48.872;9.226;2023-02-01T00:22:02;3.20;;;2.90;;
359;SDS011;168;48.872;9.226;2023-02-01T00:24:29;3.60;;;3.23;;
359;SDS011;168;48.872;9.226;2023-02-01T00:26:56;4.83;;;3.20;;
359;SDS011;168;48.872;9.226;2023-02-01T00:29:24;4.23;;;2.87;;
359;SDS011;168;48.872;9.226;2023-02-01T00:31:51;2.83;;;2.63;;
359;SDS011;168;48.872;9.226;2023-02-01T00:34:19;2.80;;;2.60;;
359;SDS011;168;48.872;9.226;2023-02-01T00:36:47;2.90;;;2.70;;
359;SDS011;168;48.872;9.226;2023-02-01T00:39:16;3.07;;;2.80;;
359;SDS011;168;48.872;9.226;2023-02-01T00:41:43;3.37;;;2.60;;
359;SDS011;168;48.872;9.226;2023-02-01T00:44:11;2.93;;;2.60;;
359;SDS011;168;48.872;9.226;2023-02-01T00:46:38;2.83;;;2.63;;
359;SDS011;168;48.872;9.226;2023-02-01T00:49:06;2.70;;;2.60;;
359;SDS011;168;48.872;9.226;2023-02-01T00:51:34;2.03;;;1.93;;
359;SDS011;168;48.872;9.226;2023-02-01T00:54:02;2.80;;;2.60;;
359;SDS011;168;48.872;9.226;2023-02-01T00:56:31;2.60;;;2.40;;
359;SDS011;168;48.872;9.226;2023-02-01T00:58:58;2.90;;;2.70;;
359;SDS011;168;48.872;9.226;2023-02-01T01:01:26;4.13;;;2.87;;
359;SDS011;168;48.872;9.226;2023-02-01T01:03:55;2.77;;;2.53;;
359;SDS011;168;48.872;9.226;2023-02-01T01:06:24;3.00;;;2.70;;
359;SDS011;168;48.872;9.226;2023-02-01T01:08:53;3.00;;;2.63;;
359;SDS011;168;48.872;9.226;2023-02-01T01:11:22;2.70;;;2.50;;
359;SDS011;168;48.872;9.226;2023-02-01T01:13:53;3.00;;;2.70;;
359;SDS011;168;48.872;9.226;2023-02-01T01:16:22;2.90;;;2.60;;
359;SDS011;168;48.872;9.226;2023-02-01T01:18:51;3.13;;;2.60;;
359;SDS011;168;48.872;9.226;2023-02-01T01:21:19;2.50;;;2.40;;
359;SDS011;168;48.872;9.226;2023-02-01T01:23:46;2.53;;;2.33;;
359;SDS011;168;48.872;9.226;2023-02-01T01:26:15;3.30;;;2.40;;
359;SDS011;168;48.872;9.226;2023-02-01T01:28:44;2.10;;;1.90;;
359;SDS011;168;48.872;9.226;2023-02-01T01:31:15;2.30;;;2.17;;
359;SDS011;168;48.872;9.226;2023-02-01T01:33:43;2.40;;;2.23;;
359;SDS011;168;48.872;9.226;2023-02-01T01:36:13;3.00;;;2.43;;
359;SDS011;168;48.872;9.226;2023-02-01T01:38:41;2.80;;;2.10;;
359;SDS011;168;48.872;9.226;2023-02-01T01:41:09;2.17;;;1.97;;
359;SDS011;168;48.872;9.226;2023-02-01T01:43:50;2.20;;;2.10;;
359;SDS011;168;48.872;9.226;2023-02-01T01:46:24;2.63;;;2.40;;
359;SDS011;168;48.872;9.226;2023-02-01T01:48:58;2.33;;;2.10;;
359;SDS011;168;48.872;9.226;2023-02-01T01:51:32;2.40;;;2.17;;
359;SDS011;168;48.872;9.226;2023-02-01T01:54:04;2.13;;;2.00;;
359;SDS011;168;48.872;9.226;2023-02-01T01:56:35;2.10;;;1.87;;
359;SDS011;168;48.872;9.226;2023-02-01T01:59:02;1.93;;;1.83;;
359;SDS011;168;48.872;9.226;2023-02-01T02:01:32;3.60;;;2.50;;
359;SDS011;168;48.872;9.226;2023-02-01T02:04:00;2.70;;;2.47;;
359;SDS011;168;48.872;9.226;2023-02-01T02:06:34;1.60;;;1.40;;
359;SDS011;168;48.872;9.226;2023-02-01T02:09:07;1.73;;;1.63;;
359;SDS011;168;48.872;9.226;2023-02-01T02:11:34;1.83;;;1.73;;
359;SDS011;168;48.872;9.226;2023-02-01T02:14:02;2.27;;;1.87;;
359;SDS011;168;48.872;9.226;2023-02-01T02:16:44;1.80;;;1.70;;
359;SDS011;168;48.872;9.226;2023-02-01T02:28:13;1.80;;;1.70;;
359;SDS011;168;48.872;9.226;2023-02-01T02:31:03;1.90;;;1.80;;
359;SDS011;168;48.872;9.226;2023-02-01T02:36:33;2.50;;;2.30;;
359;SDS011;168;48.872;9.226;2023-02-01T02:39:12;2.20;;;2.00;;
359;SDS011;168;48.872;9.226;2023-02-01T02:41:48;2.90;;;2.00;;
359;SDS011;168;48.872;9.226;2023-02-01T02:44:44;2.00;;;1.90;;
359;SDS011;168;48.872;9.226;2023-02-01T02:47:33;1.80;;;1.70;;
359;SDS011;168;48.872;9.226;2023-02-01T02:50:11;1.93;;;1.83;;
359;SDS011;168;48.872;9.226;2023-02-01T02:53:06;1.70;;;1.40;;
359;SDS011;168;48.872;9.226;2023-02-01T02:55:55;2.00;;;1.90;;
359;SDS011;168;48.872;9.226;2023-02-01T02:58:41;2.67;;;2.27;;
359;SDS011;168;48.872;9.226;2023-02-01T03:01:28;2.33;;;2.10;;
359;SDS011;168;48.872;9.226;2023-02-01T03:04:13;2.30;;;2.10;;
359;SDS011;168;48.872;9.226;2023-02-01T03:06:44;2.40;;;2.30;;
359;SDS011;168;48.872;9.226;2023-02-01T03:09:13;2.47;;;2.27;;
359;SDS011;168;48.872;9.226;2023-02-01T03:11:47;2.10;;;1.97;;
359;SDS011;168;48.872;9.226;2023-02-01T03:14:35;2.43;;;2.30;;
359;SDS011;168;48.872;9.226;2023-02-01T03:17:05;2.87;;;2.67;;
359;SDS011;168;48.872;9.226;2023-02-01T03:19:39;2.67;;;2.47;;
359;SDS011;168;48.872;9.226;2023-02-01T03:22:15;2.70;;;2.47;;
359;SDS011;168;48.872;9.226;2023-02-01T03:24:47;2.83;;;2.73;;
359;SDS011;168;48.872;9.226;2023-02-01T03:27:17;3.43;;;2.53;;
359;SDS011;168;48.872;9.226;2023-02-01T03:29:48;2.90;;;2.70;;
359;SDS011;168;48.872;9.226;2023-02-01T03:32:19;4.00;;;3.37;;
359;SDS011;168;48.872;9.226;2023-02-01T03:34:47;2.77;;;2.57;;
359;SDS011;168;48.872;9.226;2023-02-01T03:37:19;2.80;;;2.60;;
359;SDS011;168;48.872;9.226;2023-02-01T03:39:51;3.30;;;3.07;;
359;SDS011;168;48.872;9.226;2023-02-01T03:42:26;2.40;;;2.20;;
359;SDS011;168;48.872;9.226;2023-02-01T03:44:58;2.70;;;2.50;;
359;SDS011;168;48.872;9.226;2023-02-01T03:47:33;2.87;;;2.60;;
359;SDS011;168;48.872;9.226;2023-02-01T03:50:05;2.80;;;2.60;;
359;SDS011;168;48.872;9.226;2023-02-01T03:52:36;2.97;;;2.40;;
359;SDS011;168;48.872;9.226;2023-02-01T03:55:10;5.40;;;3.07;;
359;SDS011;168;48.872;9.226;2023-02-01T03:57:42;2.57;;;2.37;;
359;SDS011;168;48.872;9.226;2023-02-01T04:00:15;2.37;;;2.17;;
359;SDS011;168;48.872;9.226;2023-02-01T04:02:45;2.73;;;2.53;;
359;SDS011;168;48.872;9.226;2023-02-01T04:05:12;2.97;;;2.40;;
359;SDS011;168;48.872;9.226;2023-02-01T04:07:41;3.03;;;2.20;;
359;SDS011;168;48.872;9.226;2023-02-01T04:10:10;2.60;;;2.40;;
359;SDS011;168;48.872;9.226;2023-02-01T04:12:39;2.20;;;2.00;;
359;SDS011;168;48.872;9.226;2023-02-01T04:15:07;2.50;;;2.40;;
359;SDS011;168;48.872;9.226;2023-02-01T04:17:35;2.50;;;2.30;;
359;SDS011;168;48.872;9.226;2023-02-01T04:20:02;1.80;;;1.70;;
359;SDS011;168;48.872;9.226;2023-02-01T04:22:31;2.50;;;2.30;;
359;SDS011;168;48.872;9.226;2023-02-01T04:25:00;2.10;;;1.90;;
359;SDS011;168;48.872;9.226;2023-02-01T04:27:27;2.37;;;2.17;;
359;SDS011;168;48.872;9.226;2023-02-01T04:29:54;1.80;;;1.70;;
359;SDS011;168;48.872;9.226;2023-02-01T04:32:22;2.63;;;2.43;;
359;SDS011;168;48.872;9.226;2023-02-01T04:34:49;2.50;;;2.27;;
359;SDS011;168;48.872;9.226;2023-02-01T04:37:17;2.13;;;2.03;;
359;SDS011;168;48.872;9.226;2023-02-01T04:39:44;2.50;;;2.30;;
359;SDS011;168;48.872;9.226;2023-02-01T04:42:13;2.40;;;2.13;;
359;SDS011;168;48.872;9.226;2023-02-01T04:44:40;2.00;;;1.90;;
359;SDS011;168;48.872;9.226;2023-02-01T04:47:08;2.40;;;2.20;;
359;SDS011;168;48.872;9.226;2023-02-01T04:49:36;2.33;;;2.23;;
359;SDS011;168;48.872;9.226;2023-02-01T04:52:03;1.93;;;1.80;;
359;SDS011;168;48.872;9.226;2023-02-01T04:54:31;2.40;;;2.13;;
359;SDS011;168;48.872;9.226;2023-02-01T04:56:58;2.40;;;2.20;;
359;SDS011;168;48.872;9.226;2023-02-01T04:59:27;2.33;;;1.97;;
359;SDS011;168;48.872;9.226;2023-02-01T05:01:54;2.07;;;1.97;;
359;SDS011;168;48.872;9.226;2023-02-01T05:04:22;1.80;;;1.70;;
359;SDS011;168;48.872;9.226;2023-02-01T05:06:49;2.20;;;2.00;;
359;SDS011;168;48.872;9.226;2023-02-01T05:09:16;2.80;;;2.07;;
359;SDS011;168;48.872;9.226;2023-02-01T05:11:44;2.27;;;2.07;;
359;SDS011;168;48.872;9.226;2023-02-01T05:14:30;1.97;;;1.87;;
359;SDS011;168;48.872;9.226;2023-02-01T05:16:57;2.30;;;2.20;;
359;SDS011;168;48.872;9.226;2023-02-01T05:19:25;2.20;;;2.10;;
359;SDS011;168;48.872;9.226;2023-02-01T05:21:52;2.40;;;2.20;;
359;SDS011;168;48.872;9.226;2023-02-01T05:24:19;2.83;;;2.63;;
359;SDS011;168;48.872;9.226;2023-02-01T05:26:47;2.33;;;2.13;;
359;SDS011;168;48.872;9.226;2023-02-01T05:29:15;2.33;;;2.20;;
359;SDS011;168;48.872;9.226;2023-02-01T05:31:45;2.03;;;1.93;;
359;SDS011;168;48.872;9.226;2023-02-01T05:34:12;2.23;;;2.07;;
359;SDS011;168;48.872;9.226;2023-02-01T05:36:40;2.23;;;2.13;;
359;SDS011;168;48.872;9.226;2023-02-01T05:39:08;2.20;;;2.00;;
359;SDS011;168;48.872;9.226;2023-02-01T05:41:36;2.17;;;2.07;;
359;SDS011;168;48.872;9.226;2023-02-01T05:44:04;2.50;;;2.30;;
359;SDS011;168;48.872;9.226;2023-02-01T05:46:32;4.10;;;2.47;;
359;SDS011;168;48.872;9.226;2023-02-01T05:49:02;2.70;;;2.50;;
359;SDS011;168;48.872;9.226;2023-02-01T05:51:29;2.60;;;2.03;;
359;SDS011;168;48.872;9.226;2023-02-01T05:53:56;2.17;;;2.00;;
359;SDS011;168;48.872;9.226;2023-02-01T05:56:24;2.70;;;2.30;;
359;SDS011;168;48.872;9.226;2023-02-01T05:58:51;2.50;;;2.30;;
359;SDS011;168;48.872;9.226;2023-02-01T06:01:19;2.43;;;2.23;;
359;SDS011;168;48.872;9.226;2023-02-01T06:03:46;2.53;;;2.43;;
359;SDS011;168;48.872;9.226;2023-02-01T06:06:15;3.53;;;2.23;;
359;SDS011;168;48.872;9.226;2023-02-01T06:08:42;2.17;;;2.07;;
359;SDS011;168;48.872;9.226;2023-02-01T06:11:11;1.87;;;1.77;;
359;SDS011;168;48.872;9.226;2023-02-01T06:13:38;2.10;;;2.00;;
359;SDS011;168;48.872;9.226;2023-02-01T06:16:06;1.90;;;1.80;;
359;SDS011;168;48.872;9.226;2023-02-01T06:18:33;2.23;;;1.90;;
359;SDS011;168;48.872;9.226;2023-02-01T06:21:01;2.60;;;1.90;;
359;SDS011;168;48.872;9.226;2023-02-01T06:23:30;2.03;;;1.93;;
359;SDS011;168;48.872;9.226;2023-02-01T06:25:58;2.33;;;2.17;;
359;SDS011;168;48.872;9.226;2023-02-01T06:28:27;2.17;;;1.93;;
359;SDS011;168;48.872;9.226;2023-02-01T06:30:54;2.70;;;2.50;;
359;SDS011;168;48.872;9.226;2023-02-01T06:33:23;2.57;;;2.40;;
359;SDS011;168;48.872;9.226;2023-02-01T06:35:56;2.30;;;2.20;;
359;SDS011;168;48.872;9.226;2023-02-01T06:38:24;2.80;;;2.60;;
359;SDS011;168;48.872;9.226;2023-02-01T06:40:53;2.80;;;2.60;;
359;SDS011;168;48.872;9.226;2023-02-01T06:43:22;2.87;;;2.67;;
359;SDS011;168;48.872;9.226;2023-02-01T06:45:51;3.50;;;3.00;;
359;SDS011;168;48.872;9.226;2023-02-01T06:48:18;3.50;;;3.20;;
359;SDS011;168;48.872;9.226;2023-02-01T06:50:46;5.80;;;3.50;;
359;SDS011;168;48.872;9.226;2023-02-01T06:53:13;6.20;;;3.20;;
359;SDS011;168;48.872;9.226;2023-02-01T06:55:41;5.17;;;3.70;;
359;SDS011;168;48.872;9.226;2023-02-01T06:58:19;4.60;;;4.30;;
359;SDS011;168;48.872;9.226;2023-02-01T07:00:47;5.93;;;4.10;;
359;SDS011;168;48.872;9.226;2023-02-01T07:03:15;4.20;;;3.90;;
359;SDS011;168;48.872;9.226;2023-02-01T07:05:43;7.70;;;3.77;;
359;SDS011;168;48.872;9.226;2023-02-01T07:08:10;8.03;;;4.30;;
359;SDS011;168;48.872;9.226;2023-02-01T07:10:38;6.57;;;4.20;;
359;SDS011;168;48.872;9.226;2023-02-01T07:13:05;4.23;;;3.90;;
359;SDS011;168;48.872;9.226;2023-02-01T07:15:37;5.50;;;4.53;;
359;SDS011;168;48.872;9.226;2023-02-01T07:18:05;5.90;;;4.07;;
359;SDS011;168;48.872;9.226;2023-02-01T07:20:34;6.27;;;4.17;;
359;SDS011;168;48.872;9.226;2023-02-01T07:23:02;5.50;;;4.87;;
359;SDS011;168;48.872;9.226;2023-02-01T07:25:30;4.73;;;4.20;;
359;SDS011;168;48.872;9.226;2023-02-01T07:27:57;7.47;;;4.23;;
359;SDS011;168;48.872;9.226;2023-02-01T07:30:24;4.57;;;4.00;;
359;SDS011;168;48.872;9.226;2023-02-01T07:32:54;6.40;;;4.33;;
359;SDS011;168;48.872;9.226;2023-02-01T07:35:24;9.30;;;4.90;;
359;SDS011;168;48.872;9.226;2023-02-01T07:37:52;6.67;;;4.13;;
359;SDS011;168;48.872;9.226;2023-02-01T07:40:19;8.10;;;4.67;;
359;SDS011;168;48.872;9.226;2023-02-01T07:42:53;5.93;;;4.20;;
359;SDS011;168;48.872;9.226;2023-02-01T07:45:21;6.57;;;4.20;;
359;SDS011;168;48.872;9.226;2023-02-01T07:47:49;6.07;;;4.23;;
359;SDS011;168;48.872;9.226;2023-02-01T07:50:21;7.60;;;4.13;;
359;SDS011;168;48.872;9.226;2023-02-01T07:52:49;5.57;;;4.37;;
359;SDS011;168;48.872;9.226;2023-02-01T07:55:18;8.60;;;5.30;;
359;SDS011;168;48.872;9.226;2023-02-01T07:57:52;5.23;;;4.00;;
359;SDS011;168;48.872;9.226;2023-02-01T08:00:24;7.03;;;4.97;;
359;SDS011;168;48.872;9.226;2023-02-01T08:03:09;5.40;;;3.60;;
359;SDS011;168;48.872;9.226;2023-02-01T08:05:38;7.70;;;4.97;;
359;SDS011;168;48.872;9.226;2023-02-01T08:08:06;7.03;;;4.27;;
359;SDS011;168;48.872;9.226;2023-02-01T08:10:34;8.20;;;5.47;;
359;SDS011;168;48.872;9.226;2023-02-01T08:13:01;8.03;;;5.07;;
359;SDS011;168;48.872;9.226;2023-02-01T08:15:29;7.57;;;4.97;;
359;SDS011;168;48.872;9.226;2023-02-01T08:17:57;7.77;;;4.50;;
359;SDS011;168;48.872;9.226;2023-02-01T08:20:25;6.73;;;4.10;;
359;SDS011;168;48.872;9.226;2023-02-01T08:22:54;7.93;;;4.07;;
359;SDS011;168;48.872;9.226;2023-02-01T08:25:22;8.70;;;5.30;;
359;SDS011;168;48.872;9.226;2023-02-01T08:27:50;6.27;;;4.00;;
359;SDS011;168;48.872;9.226;2023-02-01T08:30:19;7.47;;;4.20;;
359;SDS011;168;48.872;9.226;2023-02-01T08:32:47;8.40;;;5.00;;
359;SDS011;168;48.872;9.226;2023-02-01T08:35:14;7.87;;;4.33;;
359;SDS011;168;48.872;9.226;2023-02-01T08:37:42;6.37;;;3.47;;
359;SDS011;168;48.872;9.226;2023-02-01T08:40:11;4.60;;;3.23;;
359;SDS011;168;48.872;9.226;2023-02-01T08:42:39;7.63;;;4.73;;
359;SDS011;168;48.872;9.226;2023-02-01T08:45:19;10.90;;;4.10;;
359;SDS011;168;48.872;9.226;2023-02-01T08:47:49;6.17;;;3.80;;
359;SDS011;168;48.872;9.226;2023-02-01T08:50:16;9.10;;;4.20;;
359;SDS011;168;48.872;9.226;2023-02-01T08:52:44;5.40;;;4.20;;
359;SDS011;168;48.872;9.226;2023-02-01T08:55:14;9.53;;;4.70;;
359;SDS011;168;48.872;9.226;2023-02-01T08:57:42;5.33;;;4.10;;
359;SDS011;168;48.872;9.226;2023-02-01T09:00:11;4.67;;;4.03;;
359;SDS011;168;48.872;9.226;2023-02-01T09:02:40;9.23;;;3.90;;
359;SDS011;168;48.872;9.226;2023-02-01T09:05:07;4.77;;;4.27;;
359;SDS011;168;48.872;9.226;2023-02-01T09:07:36;10.33;;;4.90;;
359;SDS011;168;48.872;9.226;2023-02-01T09:10:04;6.90;;;4.37;;
359;SDS011;168;48.872;9.226;2023-02-01T09:12:34;8.03;;;4.00;;
359;SDS011;168;48.872;9.226;2023-02-01T09:15:02;8.10;;;5.07;;
359;SDS011;168;48.872;9.226;2023-02-01T09:17:32;9.73;;;4.17;;
359;SDS011;168;48.872;9.226;2023-02-01T09:20:00;6.80;;;3.33;;
359;SDS011;168;48.872;9.226;2023-02-01T09:22:28;5.90;;;4.30;;
359;SDS011;168;48.872;9.226;2023-02-01T09:25:18;9.87;;;4.70;;
359;SDS011;168;48.872;9.226;2023-02-01T09:27:46;6.10;;;3.80;;
359;SDS011;168;48.872;9.226;2023-02-01T09:30:14;8.40;;;4.00;;
359;SDS011;168;48.872;9.226;2023-02-01T09:32:41;7.33;;;4.10;;
359;SDS011;168;48.872;9.226;2023-02-01T09:35:09;7.33;;;4.40;;
359;SDS011;168;48.872;9.226;2023-02-01T09:37:39;4.47;;;3.70;;
359;SDS011;168;48.872;9.226;2023-02-01T09:40:12;6.87;;;3.47;;
359;SDS011;168;48.872;9.226;2023-02-01T09:42:46;15.13;;;4.00;;
359;SDS011;168;48.872;9.226;2023-02-01T09:45:55;5.47;;;3.53;;
359;SDS011;168;48.872;9.226;2023-02-01T09:48:32;11.83;;;4.07;;
359;SDS011;168;48.872;9.226;2023-02-01T09:51:02;6.93;;;4.20;;
359;SDS011;168;48.872;9.226;2023-02-01T09:53:34;6.10;;;4.00;;
359;SDS011;168;48.872;9.226;2023-02-01T09:56:05;7.10;;;3.60;;
359;SDS011;168;48.872;9.226;2023-02-01T09:58:39;10.60;;;4.03;;
359;SDS011;168;48.872;9.226;2023-02-01T10:01:12;18.70;;;4.30;;
359;SDS011;168;48.872;9.226;2023-02-01T10:03:43;7.20;;;3.60;;
359;SDS011;168;48.872;9.226;2023-02-01T10:09:16;4.70;;;3.20;;
359;SDS011;168;48.872;9.226;2023-02-01T10:15:09;11.43;;;3.77;;
359;SDS011;168;48.872;9.226;2023-02-01T10:17:53;8.90;;;3.83;;
359;SDS011;168;48.872;9.226;2023-02-01T10:20:36;14.20;;;3.73;;
359;SDS011;168;48.872;9.226;2023-02-01T10:23:23;6.30;;;2.80;;
359;SDS011;168;48.872;9.226;2023-02-01T10:26:08;4.53;;;2.53;;
359;SDS011;168;48.872;9.226;2023-02-01T10:28:44;13.03;;;4.23;;
359;SDS011;168;48.872;9.226;2023-02-01T10:31:15;7.30;;;3.50;;
359;SDS011;168;48.872;9.226;2023-02-01T10:33:47;6.87;;;3.20;;
359;SDS011;168;48.872;9.226;2023-02-01T10:36:20;6.33;;;3.40;;
359;SDS011;168;48.872;9.226;2023-02-01T10:38:51;11.33;;;3.60;;
359;SDS011;168;48.872;9.226;2023-02-01T10:41:19;11.80;;;4.03;;
359;SDS011;168;48.872;9.226;2023-02-01T10:43:50;6.77;;;3.13;;
359;SDS011;168;48.872;9.226;2023-02-01T10:46:20;7.10;;;3.23;;
359;SDS011;168;48.872;9.226;2023-02-01T10:48:48;6.80;;;3.70;;
359;SDS011;168;48.872;9.226;2023-02-01T10:51:20;5.50;;;2.70;;
359;SDS011;168;48.872;9.226;2023-02-01T10:53:52;10.60;;;3.67;;
359;SDS011;168;48.872;9.226;2023-02-01T10:56:24;11.80;;;2.80;;
359;SDS011;168;48.872;9.226;2023-02-01T10:58:59;9.77;;;3.00;;
359;SDS011;168;48.872;9.226;2023-02-01T11:01:28;6.10;;;3.23;;
359;SDS011;168;48.872;9.226;2023-02-01T11:04:01;7.23;;;3.73;;
359;SDS011;168;48.872;9.226;2023-02-01T11:06:31;5.93;;;3.23;;
359;SDS011;168;48.872;9.226;2023-02-01T11:09:09;8.13;;;2.60;;
359;SDS011;168;48.872;9.226;2023-02-01T11:11:56;14.20;;;3.53;;
359;SDS011;168;48.872;9.226;2023-02-01T11:14:32;7.73;;;4.20;;
359;SDS011;168;48.872;9.226;2023-02-01T11:17:03;3.70;;;2.87;;
359;SDS011;168;48.872;9.226;2023-02-01T11:19:56;8.30;;;3.10;;
359;SDS011;168;48.872;9.226;2023-02-01T11:22:24;11.53;;;3.20;;
359;SDS011;168;48.872;9.226;2023-02-01T11:24:54;8.43;;;3.27;;
359;SDS011;168;48.872;9.226;2023-02-01T11:27:23;9.23;;;3.40;;
359;SDS011;168;48.872;9.226;2023-02-01T11:29:52;3.30;;;2.80;;
359;SDS011;168;48.872;9.226;2023-02-01T11:32:22;5.60;;;3.20;;
359;SDS011;168;48.872;9.226;2023-02-01T11:34:52;9.13;;;4.20;;
359;SDS011;168;48.872;9.226;2023-02-01T11:37:25;6.70;;;3.43;;
359;SDS011;168;48.872;9.226;2023-02-01T11:39:55;5.50;;;2.50;;
359;SDS011;168;48.872;9.226;2023-02-01T11:42:24;5.90;;;3.20;;
359;SDS011;168;48.872;9.226;2023-02-01T11:45:13;7.63;;;3.40;;
359;SDS011;168;48.872;9.226;2023-02-01T11:47:44;5.60;;;2.90;;
359;SDS011;168;48.872;9.226;2023-02-01T11:50:15;8.70;;;3.27;;
359;SDS011;168;48.872;9.226;2023-02-01T11:52:50;5.30;;;2.70;;
359;SDS011;168;48.872;9.226;2023-02-01T11:55:37;8.90;;;3.40;;
359;SDS011;168;48.872;9.226;2023-02-01T11:58:16;3.57;;;2.50;;
359;SDS011;168;48.872;9.226;2023-02-01T12:01:17;8.20;;;3.43;;
359;SDS011;168;48.872;9.226;2023-02-01T12:04:01;5.47;;;3.37;;
359;SDS011;168;48.872;9.226;2023-02-01T12:07:05;8.13;;;2.70;;
359;SDS011;168;48.872;9.226;2023-02-01T12:09:44;4.50;;;3.00;;
359;SDS011;168;48.872;9.226;2023-02-01T12:12:33;6.43;;;3.77;;
359;SDS011;168;48.872;9.226;2023-02-01T12:15:19;6.23;;;2.43;;
359;SDS011;168;48.872;9.226;2023-02-01T12:20:51;6.97;;;2.77;;
359;SDS011;168;48.872;9.226;2023-02-01T12:23:37;9.60;;;3.13;;
359;SDS011;168;48.872;9.226;2023-02-01T12:26:21;11.93;;;3.57;;
359;SDS011;168;48.872;9.226;2023-02-01T12:29:11;6.87;;;2.77;;
359;SDS011;168;48.872;9.226;2023-02-01T12:32:03;6.13;;;2.77;;
359;SDS011;168;48.872;9.226;2023-02-01T12:35:02;10.63;;;2.80;;
359;SDS011;168;48.872;9.226;2023-02-01T12:38:05;8.50;;;3.13;;
359;SDS011;168;48.872;9.226;2023-02-01T12:41:02;12.33;;;2.93;;
359;SDS011;168;48.872;9.226;2023-02-01T12:43:48;4.47;;;2.97;;
359;SDS011;168;48.872;9.226;2023-02-01T12:46:27;3.10;;;1.90;;
359;SDS011;168;48.872;9.226;2023-02-01T12:49:10;5.80;;;2.33;;
359;SDS011;168;48.872;9.226;2023-02-01T12:54:28;8.33;;;2.87;;
359;SDS011;168;48.872;9.226;2023-02-01T12:57:03;6.90;;;3.43;;
359;SDS011;168;48.872;9.226;2023-02-01T12:59:34;9.10;;;3.20;;
359;SDS011;168;48.872;9.226;2023-02-01T13:02:08;8.77;;;3.47;;
359;SDS011;168;48.872;9.226;2023-02-01T13:04:46;4.60;;;3.13;;
359;SDS011;168;48.872;9.226;2023-02-01T13:07:21;7.63;;;3.20;;
359;SDS011;168;48.872;9.226;2023-02-01T13:09:53;4.63;;;3.20;;
359;SDS011;168;48.872;9.226;2023-02-01T13:12:28;4.90;;;2.53;;
359;SDS011;168;48.872;9.226;2023-02-01T13:15:03;5.23;;;2.30;;
359;SDS011;168;48.872;9.226;2023-02-01T13:17:38;7.20;;;3.50;;
359;SDS011;168;48.872;9.226;2023-02-01T13:20:13;7.10;;;3.57;;
359;SDS011;168;48.872;9.226;2023-02-01T13:22:46;5.30;;;3.00;;
359;SDS011;168;48.872;9.226;2023-02-01T13:25:18;7.40;;;3.33;;
359;SDS011;168;48.872;9.226;2023-02-01T13:27:54;6.17;;;3.40;;
359;SDS011;168;48.872;9.226;2023-02-01T13:30:26;6.73;;;3.97;;
359;SDS011;168;48.872;9.226;2023-02-01T13:33:05;11.83;;;3.77;;
359;SDS011;168;48.872;9.226;2023-02-01T13:36:05;7.00;;;3.87;;
359;SDS011;168;48.872;9.226;2023-02-01T13:42:13;9.30;;;3.33;;
359;SDS011;168;48.872;9.226;2023-02-01T13:44:45;5.60;;;2.97;;
359;SDS011;168;48.872;9.226;2023-02-01T13:47:18;7.53;;;3.53;;
359;SDS011;168;48.872;9.226;2023-02-01T13:49:52;8.33;;;3.17;;
359;SDS011;168;48.872;9.226;2023-02-01T13:52:23;10.33;;;3.67;;
359;SDS011;168;48.872;9.226;2023-02-01T13:55:02;7.97;;;3.53;;
359;SDS011;168;48.872;9.226;2023-02-01T13:57:41;8.03;;;3.67;;
359;SDS011;168;48.872;9.226;2023-02-01T14:00:24;4.43;;;2.93;;
359;SDS011;168;48.872;9.226;2023-02-01T14:03:06;8.30;;;3.80;;
359;SDS011;168;48.872;9.226;2023-02-01T14:11:44;5.20;;;2.80;;
359;SDS011;168;48.872;9.226;2023-02-01T14:23:19;8.27;;;3.60;;
359;SDS011;168;48.872;9.226;2023-02-01T14:26:01;9.20;;;3.60;;
359;SDS011;168;48.872;9.226;2023-02-01T14:28:33;9.47;;;4.13;;
359;SDS011;168;48.872;9.226;2023-02-01T14:31:13;4.27;;;3.00;;
359;SDS011;168;48.872;9.226;2023-02-01T14:33:45;6.50;;;3.43;;
359;SDS011;168;48.872;9.226;2023-02-01T14:36:13;5.90;;;3.50;;
359;SDS011;168;48.872;9.226;2023-02-01T14:38:47;10.47;;;3.20;;
359;SDS011;168;48.872;9.226;2023-02-01T14:41:23;6.50;;;3.47;;
359;SDS011;168;48.872;9.226;2023-02-01T14:47:09;9.90;;;3.50;;
359;SDS011;168;48.872;9.226;2023-02-01T14:50:19;6.37;;;3.13;;
359;SDS011;168;48.872;9.226;2023-02-01T14:53:04;9.17;;;3.43;;
359;SDS011;168;48.872;9.226;2023-02-01T14:55:41;4.60;;;2.60;;
359;SDS011;168;48.872;9.226;2023-02-01T14:58:14;7.10;;;2.87;;
359;SDS011;168;48.872;9.226;2023-02-01T15:00:47;5.23;;;3.00;;
359;SDS011;168;48.872;9.226;2023-02-01T15:06:22;7.03;;;3.83;;
359;SDS011;168;48.872;9.226;2023-02-01T15:08:52;6.20;;;2.43;;
359;SDS011;168;48.872;9.226;2023-02-01T15:11:23;9.07;;;3.30;;
359;SDS011;168;48.872;9.226;2023-02-01T15:13:50;7.80;;;3.63;;
359;SDS011;168;48.872;9.226;2023-02-01T15:16:21;8.23;;;3.43;;
359;SDS011;168;48.872;9.226;2023-02-01T15:18:50;5.80;;;2.90;;
359;SDS011;168;48.872;9.226;2023-02-01T15:21:47;7.73;;;3.10;;
359;SDS011;168;48.872;9.226;2023-02-01T15:24:22;3.73;;;3.03;;
359;SDS011;168;48.872;9.226;2023-02-01T15:26:51;5.47;;;3.30;;
359;SDS011;168;48.872;9.226;2023-02-01T15:29:20;5.53;;;2.90;;
359;SDS011;168;48.872;9.226;2023-02-01T15:31:51;5.10;;;2.63;;
359;SDS011;168;48.872;9.226;2023-02-01T15:34:19;7.90;;;3.13;;
359;SDS011;168;48.872;9.226;2023-02-01T15:36:53;6.20;;;3.30;;
359;SDS011;168;48.872;9.226;2023-02-01T15:39:32;12.87;;;3.47;;
359;SDS011;168;48.872;9.226;2023-02-01T15:42:01;5.23;;;3.13;;
359;SDS011;168;48.872;9.226;2023-02-01T15:44:38;5.67;;;2.53;;
359;SDS011;168;48.872;9.226;2023-02-01T15:47:10;9.20;;;4.33;;
359;SDS011;168;48.872;9.226;2023-02-01T15:49:41;9.47;;;3.13;;
359;SDS011;168;48.872;9.226;2023-02-01T15:52:19;9.87;;;3.67;;
359;SDS011;168;48.872;9.226;2023-02-01T15:54:53;8.40;;;3.20;;
359;SDS011;168;48.872;9.226;2023-02-01T15:57:24;7.10;;;2.87;;
359;SDS011;168;48.872;9.226;2023-02-01T15:59:56;5.77;;;2.50;;
359;SDS011;168;48.872;9.226;2023-02-01T16:02:25;3.53;;;2.70;;
359;SDS011;168;48.872;9.226;2023-02-01T16:04:54;4.97;;;2.77;;
359;SDS011;168;48.872;9.226;2023-02-01T16:07:25;5.80;;;2.80;;
359;SDS011;168;48.872;9.226;2023-02-01T16:09:55;7.03;;;3.00;;
359;SDS011;168;48.872;9.226;2023-02-01T16:12:33;7.33;;;3.47;;
359;SDS011;168;48.872;9.226;2023-02-01T16:15:11;5.13;;;2.60;;
359;SDS011;168;48.872;9.226;2023-02-01T16:17:38;3.57;;;2.53;;
359;SDS011;168;48.872;9.226;2023-02-01T16:20:06;7.87;;;3.20;;
359;SDS011;168;48.872;9.226;2023-02-01T16:22:37;10.53;;;3.23;;
359;SDS011;168;48.872;9.226;2023-02-01T16:25:04;4.97;;;2.83;;
359;SDS011;168;48.872;9.226;2023-02-01T16:27:32;12.07;;;3.73;;
359;SDS011;168;48.872;9.226;2023-02-01T16:29:59;7.67;;;3.07;;
359;SDS011;168;48.872;9.226;2023-02-01T16:32:27;6.43;;;3.30;;
359;SDS011;168;48.872;9.226;2023-02-01T16:34:54;10.90;;;3.47;;
359;SDS011;168;48.872;9.226;2023-02-01T16:37:24;5.23;;;3.30;;
359;SDS011;168;48.872;9.226;2023-02-01T16:39:54;5.83;;;3.10;;
359;SDS011;168;48.872;9.226;2023-02-01T16:42:22;8.67;;;3.73;;
359;SDS011;168;48.872;9.226;2023-02-01T16:44:49;6.50;;;2.80;;
359;SDS011;168;48.872;9.226;2023-02-01T16:47:17;5.87;;;2.97;;
359;SDS011;168;48.872;9.226;2023-02-01T16:49:46;7.50;;;3.43;;
359;SDS011;168;48.872;9.226;2023-02-01T16:52:14;6.00;;;2.90;;
359;SDS011;168;48.872;9.226;2023-02-01T16:54:45;4.83;;;2.73;;
359;SDS011;168;48.872;9.226;2023-02-01T16:57:15;6.57;;;2.80;;
359;SDS011;168;48.872;9.226;2023-02-01T16:59:43;5.73;;;3.10;;
359;SDS011;168;48.872;9.226;2023-02-01T17:02:12;7.73;;;3.73;;
359;SDS011;168;48.872;9.226;2023-02-01T17:04:41;8.70;;;4.30;;
359;SDS011;168;48.872;9.226;2023-02-01T17:07:10;4.07;;;3.47;;